sensor_id;sensor_type;location;lat;lon;timestamp;P1;durP1;ratioP1;P2;durP2;ratioP2
3171;SDS011;1597;51.572;6.992;2023-07-20T00:01:43;6.17;;;4.60;;
3171;SDS011;1597;51.572;6.992;2023-07-20T00:04:10;5.33;;;4.47;;
3171;SDS011;1597;51.572;6.992;2023-07-20T00:06:37;5.67;;;5.07;;
3171;SDS011;1597;51.572;6.992;2023-07-20T00:09:08;8.43;;;7.57;;
3171;SDS011;1597;51.572;6.992;2023-07-20T00:11:37;4.80;;;4.30;;
3171;SDS011;1597;51.572;6.992;2023-07-20T00:14:05;5.40;;;4.70;;
3171;SDS011;1597;51.572;6.992;2023-07-20T00:16:31;5.20;;;4.70;;
3171;SDS011;1597;51.572;6.992;2023-07-20T00:18:57;6.80;;;3.73;;
3171;SDS011;1597;51.572;6.992;2023-07-20T00:21:23;6.07;;;4.77;;
3171;SDS011;1597;51.572;6.992;2023-07-20T00:23:49;4.83;;;4.40;;
3171;SDS011;1597;51.572;6.992;2023-07-20T00:26:15;4.13;;;3.63;;
3171;SDS011;1597;51.572;6.992;2023-07-20T00:28:41;7.97;;;5.57;;
3171;SDS011;1597;51.572;6.992;2023-07-20T00:31:08;5.23;;;4.73;;
3171;SDS011;1597;51.572;6.992;2023-07-20T00:33:34;11.50;;;5.47;;
3171;SDS011;1597;51.572;6.992;2023-07-20T00:35:59;6.13;;;4.60;;
3171;SDS011;1597;51.572;6.992;2023-07-20T00:38:25;5.20;;;3.83;;
3171;SDS011;1597;51.572;6.992;2023-07-20T00:40:51;3.43;;;3.13;;
3171;SDS011;1597;51.572;6.992;2023-07-20T00:43:17;5.30;;;4.80;;
3171;SDS011;1597;51.572;6.992;2023-07-20T00:45:42;5.07;;;4.33;;
3171;SDS011;1597;51.572;6.992;2023-07-20T00:48:09;6.30;;;4.97;;
3171;SDS011;1597;51.572;6.992;2023-07-20T00:50:36;7.40;;;4.17;;
3171;SDS011;1597;51.572;6.992;2023-07-20T00:53:02;5.60;;;4.73;;
3171;SDS011;1597;51.572;6.992;2023-07-20T00:55:32;6.23;;;5.00;;
3171;SDS011;1597;51.572;6.992;2023-07-20T00:57:58;5.77;;;5.00;;
3171;SDS011;1597;51.572;6.992;2023-07-20T01:00:25;5.70;;;4.33;;
3171;SDS011;1597;51.572;6.992;2023-07-20T01:02:51;5.07;;;4.40;;
3171;SDS011;1597;51.572;6.992;2023-07-20T01:05:17;4.60;;;4.00;;
3171;SDS011;1597;51.572;6.992;2023-07-20T01:07:49;5.33;;;4.93;;
3171;SDS011;1597;51.572;6.992;2023-07-20T01:10:34;7.07;;;6.37;;
3171;SDS011;1597;51.572;6.992;2023-07-20T01:13:09;7.80;;;6.90;;
3171;SDS011;1597;51.572;6.992;2023-07-20T01:15:36;9.43;;;7.10;;
3171;SDS011;1597;51.572;6.992;2023-07-20T01:18:02;6.70;;;6.00;;
3171;SDS011;1597;51.572;6.992;2023-07-20T01:20:29;6.83;;;6.10;;
3171;SDS011;1597;51.572;6.992;2023-07-20T01:23:06;8.20;;;6.00;;
3171;SDS011;1597;51.572;6.992;2023-07-20T01:31:52;5.20;;;4.70;;
3171;SDS011;1597;51.572;6.992;2023-07-20T01:34:19;8.63;;;6.83;;
3171;SDS011;1597;51.572;6.992;2023-07-20T01:36:48;7.20;;;5.73;;
3171;SDS011;1597;51.572;6.992;2023-07-20T01:39:17;5.47;;;4.90;;
3171;SDS011;1597;51.572;6.992;2023-07-20T01:41:45;6.00;;;5.37;;
3171;SDS011;1597;51.572;6.992;2023-07-20T01:44:12;4.70;;;4.20;;
3171;SDS011;1597;51.572;6.992;2023-07-20T01:46:38;7.40;;;6.10;;
3171;SDS011;1597;51.572;6.992;2023-07-20T01:49:04;9.60;;;7.37;;
3171;SDS011;1597;51.572;6.992;2023-07-20T01:51:29;6.93;;;5.70;;
3171;SDS011;1597;51.572;6.992;2023-07-20T01:53:55;4.40;;;4.00;;
3171;SDS011;1597;51.572;6.992;2023-07-20T01:56:21;6.77;;;4.90;;
3171;SDS011;1597;51.572;6.992;2023-07-20T01:58:47;9.70;;;6.17;;
3171;SDS011;1597;51.572;6.992;2023-07-20T02:01:12;5.03;;;4.20;;
3171;SDS011;1597;51.572;6.992;2023-07-20T02:03:38;13.63;;;8.00;;
3171;SDS011;1597;51.572;6.992;2023-07-20T02:06:04;13.50;;;9.17;;
3171;SDS011;1597;51.572;6.992;2023-07-20T02:08:30;13.03;;;7.70;;
3171;SDS011;1597;51.572;6.992;2023-07-20T02:10:58;9.43;;;7.40;;
3171;SDS011;1597;51.572;6.992;2023-07-20T02:13:24;9.87;;;7.77;;
3171;SDS011;1597;51.572;6.992;2023-07-20T02:15:50;8.47;;;7.00;;
3171;SDS011;1597;51.572;6.992;2023-07-20T02:18:16;8.03;;;7.20;;
3171;SDS011;1597;51.572;6.992;2023-07-20T02:20:42;10.40;;;7.80;;
3171;SDS011;1597;51.572;6.992;2023-07-20T02:23:08;9.80;;;7.83;;
3171;SDS011;1597;51.572;6.992;2023-07-20T02:25:33;14.03;;;8.20;;
3171;SDS011;1597;51.572;6.992;2023-07-20T02:27:59;8.13;;;7.43;;
3171;SDS011;1597;51.572;6.992;2023-07-20T02:30:25;10.17;;;7.20;;
3171;SDS011;1597;51.572;6.992;2023-07-20T02:32:52;8.70;;;6.57;;
3171;SDS011;1597;51.572;6.992;2023-07-20T02:35:17;8.93;;;6.70;;
3171;SDS011;1597;51.572;6.992;2023-07-20T02:37:43;8.40;;;7.53;;
3171;SDS011;1597;51.572;6.992;2023-07-20T02:40:09;7.63;;;6.83;;
3171;SDS011;1597;51.572;6.992;2023-07-20T02:42:36;9.27;;;7.70;;
3171;SDS011;1597;51.572;6.992;2023-07-20T02:45:02;10.10;;;8.60;;
3171;SDS011;1597;51.572;6.992;2023-07-20T02:47:29;10.60;;;9.10;;
3171;SDS011;1597;51.572;6.992;2023-07-20T02:49:55;10.07;;;9.07;;
3171;SDS011;1597;51.572;6.992;2023-07-20T02:52:21;12.87;;;8.80;;
3171;SDS011;1597;51.572;6.992;2023-07-20T02:54:48;10.87;;;9.80;;
3171;SDS011;1597;51.572;6.992;2023-07-20T02:57:14;12.43;;;9.77;;
3171;SDS011;1597;51.572;6.992;2023-07-20T02:59:39;8.23;;;6.90;;
3171;SDS011;1597;51.572;6.992;2023-07-20T03:02:05;6.73;;;6.03;;
3171;SDS011;1597;51.572;6.992;2023-07-20T03:04:34;13.00;;;10.57;;
3171;SDS011;1597;51.572;6.992;2023-07-20T03:07:02;11.60;;;10.43;;
3171;SDS011;1597;51.572;6.992;2023-07-20T03:09:30;13.00;;;10.90;;
3171;SDS011;1597;51.572;6.992;2023-07-20T03:11:55;12.10;;;10.80;;
3171;SDS011;1597;51.572;6.992;2023-07-20T03:14:21;13.07;;;10.10;;
3171;SDS011;1597;51.572;6.992;2023-07-20T03:16:48;15.03;;;10.20;;
3171;SDS011;1597;51.572;6.992;2023-07-20T03:19:15;13.53;;;10.50;;
3171;SDS011;1597;51.572;6.992;2023-07-20T03:21:40;15.63;;;11.10;;
3171;SDS011;1597;51.572;6.992;2023-07-20T03:24:07;14.60;;;10.70;;
3171;SDS011;1597;51.572;6.992;2023-07-20T03:26:34;17.40;;;13.33;;
3171;SDS011;1597;51.572;6.992;2023-07-20T03:29:00;14.70;;;11.60;;
3171;SDS011;1597;51.572;6.992;2023-07-20T03:31:26;15.07;;;12.43;;
3171;SDS011;1597;51.572;6.992;2023-07-20T03:33:53;16.83;;;12.20;;
3171;SDS011;1597;51.572;6.992;2023-07-20T03:36:19;15.93;;;12.37;;
3171;SDS011;1597;51.572;6.992;2023-07-20T03:38:45;10.53;;;9.50;;
3171;SDS011;1597;51.572;6.992;2023-07-20T03:41:11;17.63;;;12.63;;
3171;SDS011;1597;51.572;6.992;2023-07-20T03:43:37;17.00;;;12.80;;
3171;SDS011;1597;51.572;6.992;2023-07-20T03:46:03;15.23;;;12.67;;
3171;SDS011;1597;51.572;6.992;2023-07-20T03:48:32;14.13;;;12.40;;
3171;SDS011;1597;51.572;6.992;2023-07-20T03:50:58;13.60;;;11.43;;
3171;SDS011;1597;51.572;6.992;2023-07-20T03:53:25;13.57;;;10.60;;
3171;SDS011;1597;51.572;6.992;2023-07-20T03:55:51;14.33;;;11.20;;
3171;SDS011;1597;51.572;6.992;2023-07-20T03:58:18;14.63;;;11.73;;
3171;SDS011;1597;51.572;6.992;2023-07-20T04:00:46;13.30;;;12.00;;
3171;SDS011;1597;51.572;6.992;2023-07-20T04:03:17;11.77;;;10.67;;
3171;SDS011;1597;51.572;6.992;2023-07-20T04:05:44;11.70;;;10.50;;
3171;SDS011;1597;51.572;6.992;2023-07-20T04:08:10;13.00;;;11.37;;
3171;SDS011;1597;51.572;6.992;2023-07-20T04:10:36;8.60;;;7.70;;
3171;SDS011;1597;51.572;6.992;2023-07-20T04:13:03;8.70;;;7.80;;
3171;SDS011;1597;51.572;6.992;2023-07-20T04:15:30;11.70;;;10.70;;
3171;SDS011;1597;51.572;6.992;2023-07-20T04:17:56;10.20;;;9.20;;
3171;SDS011;1597;51.572;6.992;2023-07-20T04:20:25;8.37;;;7.43;;
3171;SDS011;1597;51.572;6.992;2023-07-20T04:22:51;11.97;;;10.77;;
3171;SDS011;1597;51.572;6.992;2023-07-20T04:25:20;10.70;;;9.60;;
3171;SDS011;1597;51.572;6.992;2023-07-20T04:27:45;11.30;;;10.20;;
3171;SDS011;1597;51.572;6.992;2023-07-20T04:30:13;11.23;;;10.20;;
3171;SDS011;1597;51.572;6.992;2023-07-20T04:32:40;11.57;;;10.57;;
3171;SDS011;1597;51.572;6.992;2023-07-20T04:35:09;11.40;;;10.30;;
3171;SDS011;1597;51.572;6.992;2023-07-20T04:37:35;11.80;;;10.60;;
3171;SDS011;1597;51.572;6.992;2023-07-20T04:40:00;9.97;;;8.30;;
3171;SDS011;1597;51.572;6.992;2023-07-20T04:42:26;7.83;;;7.03;;
3171;SDS011;1597;51.572;6.992;2023-07-20T04:44:52;12.00;;;9.00;;
3171;SDS011;1597;51.572;6.992;2023-07-20T04:47:18;13.40;;;10.07;;
3171;SDS011;1597;51.572;6.992;2023-07-20T04:49:43;8.97;;;6.97;;
3171;SDS011;1597;51.572;6.992;2023-07-20T04:52:09;10.03;;;8.20;;
3171;SDS011;1597;51.572;6.992;2023-07-20T04:54:36;10.63;;;8.83;;
3171;SDS011;1597;51.572;6.992;2023-07-20T04:57:01;9.60;;;8.70;;
3171;SDS011;1597;51.572;6.992;2023-07-20T04:59:27;9.40;;;8.50;;
3171;SDS011;1597;51.572;6.992;2023-07-20T05:01:53;8.80;;;7.10;;
3171;SDS011;1597;51.572;6.992;2023-07-20T05:04:19;9.97;;;9.03;;
3171;SDS011;1597;51.572;6.992;2023-07-20T05:06:45;9.33;;;8.43;;
3171;SDS011;1597;51.572;6.992;2023-07-20T05:09:11;9.80;;;8.77;;
3171;SDS011;1597;51.572;6.992;2023-07-20T05:11:36;11.17;;;8.80;;
3171;SDS011;1597;51.572;6.992;2023-07-20T05:14:02;8.30;;;7.50;;
3171;SDS011;1597;51.572;6.992;2023-07-20T05:16:28;9.37;;;8.03;;
3171;SDS011;1597;51.572;6.992;2023-07-20T05:18:54;9.23;;;8.27;;
3171;SDS011;1597;51.572;6.992;2023-07-20T05:21:22;8.47;;;7.63;;
3171;SDS011;1597;51.572;6.992;2023-07-20T05:23:48;7.43;;;6.77;;
3171;SDS011;1597;51.572;6.992;2023-07-20T05:26:13;5.67;;;5.17;;
3171;SDS011;1597;51.572;6.992;2023-07-20T05:28:39;7.63;;;6.80;;
3171;SDS011;1597;51.572;6.992;2023-07-20T05:31:05;7.43;;;6.80;;
3171;SDS011;1597;51.572;6.992;2023-07-20T05:33:31;6.20;;;5.70;;
3171;SDS011;1597;51.572;6.992;2023-07-20T05:35:57;7.23;;;6.50;;
3171;SDS011;1597;51.572;6.992;2023-07-20T05:38:23;7.20;;;6.40;;
3171;SDS011;1597;51.572;6.992;2023-07-20T05:40:49;7.73;;;6.93;;
3171;SDS011;1597;51.572;6.992;2023-07-20T05:43:15;7.30;;;6.60;;
3171;SDS011;1597;51.572;6.992;2023-07-20T05:45:43;9.63;;;8.57;;
3171;SDS011;1597;51.572;6.992;2023-07-20T05:48:10;7.10;;;6.40;;
3171;SDS011;1597;51.572;6.992;2023-07-20T05:50:42;6.20;;;5.70;;
3171;SDS011;1597;51.572;6.992;2023-07-20T05:53:09;7.00;;;6.37;;
3171;SDS011;1597;51.572;6.992;2023-07-20T05:55:34;6.97;;;6.10;;
3171;SDS011;1597;51.572;6.992;2023-07-20T05:58:00;5.57;;;5.07;;
3171;SDS011;1597;51.572;6.992;2023-07-20T06:00:26;8.43;;;6.10;;
3171;SDS011;1597;51.572;6.992;2023-07-20T06:02:53;5.10;;;4.60;;
3171;SDS011;1597;51.572;6.992;2023-07-20T06:05:20;4.43;;;3.97;;
3171;SDS011;1597;51.572;6.992;2023-07-20T06:07:48;4.87;;;4.47;;
3171;SDS011;1597;51.572;6.992;2023-07-20T06:10:14;6.20;;;5.50;;
3171;SDS011;1597;51.572;6.992;2023-07-20T06:12:41;5.10;;;4.60;;
3171;SDS011;1597;51.572;6.992;2023-07-20T06:15:12;6.20;;;5.63;;
3171;SDS011;1597;51.572;6.992;2023-07-20T06:17:56;5.77;;;5.23;;
3171;SDS011;1597;51.572;6.992;2023-07-20T06:20:23;4.90;;;4.50;;
3171;SDS011;1597;51.572;6.992;2023-07-20T06:22:50;5.13;;;4.73;;
3171;SDS011;1597;51.572;6.992;2023-07-20T06:25:16;4.93;;;4.53;;
3171;SDS011;1597;51.572;6.992;2023-07-20T06:27:42;5.00;;;4.60;;
3171;SDS011;1597;51.572;6.992;2023-07-20T06:30:09;4.13;;;3.10;;
3171;SDS011;1597;51.572;6.992;2023-07-20T06:32:35;4.67;;;3.97;;
3171;SDS011;1597;51.572;6.992;2023-07-20T06:35:01;4.57;;;4.17;;
3171;SDS011;1597;51.572;6.992;2023-07-20T06:37:27;3.90;;;3.57;;
3171;SDS011;1597;51.572;6.992;2023-07-20T06:39:53;2.87;;;2.57;;
3171;SDS011;1597;51.572;6.992;2023-07-20T06:42:19;3.03;;;2.83;;
3171;SDS011;1597;51.572;6.992;2023-07-20T06:44:44;2.67;;;2.47;;
3171;SDS011;1597;51.572;6.992;2023-07-20T06:47:10;6.43;;;5.80;;
3171;SDS011;1597;51.572;6.992;2023-07-20T06:49:37;3.10;;;2.90;;
3171;SDS011;1597;51.572;6.992;2023-07-20T06:52:03;2.30;;;2.10;;
3171;SDS011;1597;51.572;6.992;2023-07-20T06:54:29;2.60;;;2.40;;
3171;SDS011;1597;51.572;6.992;2023-07-20T06:56:55;3.40;;;2.87;;
3171;SDS011;1597;51.572;6.992;2023-07-20T06:59:21;4.00;;;3.60;;
3171;SDS011;1597;51.572;6.992;2023-07-20T07:01:49;2.73;;;2.53;;
3171;SDS011;1597;51.572;6.992;2023-07-20T07:04:15;3.17;;;2.87;;
3171;SDS011;1597;51.572;6.992;2023-07-20T07:06:41;3.27;;;2.80;;
3171;SDS011;1597;51.572;6.992;2023-07-20T07:09:07;2.90;;;2.60;;
3171;SDS011;1597;51.572;6.992;2023-07-20T07:11:33;4.00;;;2.70;;
3171;SDS011;1597;51.572;6.992;2023-07-20T07:13:59;3.07;;;2.77;;
3171;SDS011;1597;51.572;6.992;2023-07-20T07:16:25;3.50;;;3.20;;
3171;SDS011;1597;51.572;6.992;2023-07-20T07:18:51;3.13;;;2.57;;
3171;SDS011;1597;51.572;6.992;2023-07-20T07:21:17;6.23;;;3.60;;
3171;SDS011;1597;51.572;6.992;2023-07-20T07:23:43;3.73;;;3.03;;
3171;SDS011;1597;51.572;6.992;2023-07-20T07:26:09;2.60;;;2.40;;
3171;SDS011;1597;51.572;6.992;2023-07-20T07:28:35;3.10;;;2.90;;
3171;SDS011;1597;51.572;6.992;2023-07-20T07:31:04;3.20;;;3.00;;
3171;SDS011;1597;51.572;6.992;2023-07-20T07:33:31;3.93;;;3.40;;
3171;SDS011;1597;51.572;6.992;2023-07-20T07:35:57;3.10;;;2.90;;
3171;SDS011;1597;51.572;6.992;2023-07-20T07:38:24;3.43;;;3.20;;
3171;SDS011;1597;51.572;6.992;2023-07-20T07:40:50;4.33;;;3.33;;
3171;SDS011;1597;51.572;6.992;2023-07-20T07:43:15;2.93;;;2.73;;
3171;SDS011;1597;51.572;6.992;2023-07-20T07:45:41;2.77;;;2.57;;
3171;SDS011;1597;51.572;6.992;2023-07-20T07:48:07;3.13;;;2.83;;
3171;SDS011;1597;51.572;6.992;2023-07-20T07:50:36;3.83;;;3.53;;
3171;SDS011;1597;51.572;6.992;2023-07-20T07:53:02;4.63;;;4.10;;
3171;SDS011;1597;51.572;6.992;2023-07-20T07:55:28;22.67;;;4.50;;
3171;SDS011;1597;51.572;6.992;2023-07-20T07:57:54;5.40;;;3.33;;
3171;SDS011;1597;51.572;6.992;2023-07-20T08:00:19;4.60;;;4.10;;
3171;SDS011;1597;51.572;6.992;2023-07-20T08:02:45;4.43;;;4.03;;
3171;SDS011;1597;51.572;6.992;2023-07-20T08:05:13;4.27;;;3.87;;
3171;SDS011;1597;51.572;6.992;2023-07-20T08:07:39;4.80;;;4.40;;
3171;SDS011;1597;51.572;6.992;2023-07-20T08:10:06;3.40;;;2.57;;
3171;SDS011;1597;51.572;6.992;2023-07-20T08:12:33;3.47;;;2.70;;
3171;SDS011;1597;51.572;6.992;2023-07-20T08:14:59;2.33;;;2.23;;
3171;SDS011;1597;51.572;6.992;2023-07-20T08:17:25;3.43;;;3.13;;
3171;SDS011;1597;51.572;6.992;2023-07-20T08:19:51;2.67;;;2.47;;
3171;SDS011;1597;51.572;6.992;2023-07-20T08:22:16;2.57;;;2.37;;
3171;SDS011;1597;51.572;6.992;2023-07-20T08:24:43;2.70;;;2.50;;
3171;SDS011;1597;51.572;6.992;2023-07-20T08:27:09;3.23;;;3.00;;
3171;SDS011;1597;51.572;6.992;2023-07-20T08:29:35;4.90;;;3.43;;
3171;SDS011;1597;51.572;6.992;2023-07-20T08:32:01;2.80;;;2.60;;
3171;SDS011;1597;51.572;6.992;2023-07-20T08:34:29;3.00;;;2.53;;
3171;SDS011;1597;51.572;6.992;2023-07-20T08:36:55;2.47;;;2.27;;
3171;SDS011;1597;51.572;6.992;2023-07-20T08:39:23;2.07;;;1.87;;
3171;SDS011;1597;51.572;6.992;2023-07-20T08:41:49;2.53;;;2.33;;
3171;SDS011;1597;51.572;6.992;2023-07-20T08:44:19;2.73;;;2.60;;
3171;SDS011;1597;51.572;6.992;2023-07-20T08:46:45;2.90;;;2.70;;
3171;SDS011;1597;51.572;6.992;2023-07-20T08:49:12;2.60;;;2.33;;
3171;SDS011;1597;51.572;6.992;2023-07-20T08:51:41;3.80;;;3.40;;
3171;SDS011;1597;51.572;6.992;2023-07-20T08:54:09;6.57;;;5.57;;
3171;SDS011;1597;51.572;6.992;2023-07-20T08:56:38;2.37;;;2.07;;
3171;SDS011;1597;51.572;6.992;2023-07-20T08:59:06;2.10;;;2.00;;
3171;SDS011;1597;51.572;6.992;2023-07-20T09:01:34;1.93;;;1.70;;
3171;SDS011;1597;51.572;6.992;2023-07-20T09:04:03;2.03;;;1.80;;
3171;SDS011;1597;51.572;6.992;2023-07-20T09:06:29;4.17;;;3.10;;
3171;SDS011;1597;51.572;6.992;2023-07-20T09:08:55;3.93;;;3.23;;
3171;SDS011;1597;51.572;6.992;2023-07-20T09:11:21;1.63;;;1.20;;
3171;SDS011;1597;51.572;6.992;2023-07-20T09:13:47;2.40;;;1.40;;
3171;SDS011;1597;51.572;6.992;2023-07-20T09:16:16;1.40;;;1.30;;
3171;SDS011;1597;51.572;6.992;2023-07-20T09:18:41;1.57;;;1.43;;
3171;SDS011;1597;51.572;6.992;2023-07-20T09:21:07;4.67;;;2.00;;
3171;SDS011;1597;51.572;6.992;2023-07-20T09:23:34;3.50;;;1.97;;
3171;SDS011;1597;51.572;6.992;2023-07-20T09:26:11;2.30;;;1.70;;
3171;SDS011;1597;51.572;6.992;2023-07-20T09:28:51;2.40;;;1.63;;
3171;SDS011;1597;51.572;6.992;2023-07-20T09:31:21;1.53;;;0.90;;
3171;SDS011;1597;51.572;6.992;2023-07-20T09:33:48;2.53;;;1.47;;
3171;SDS011;1597;51.572;6.992;2023-07-20T09:36:17;3.43;;;3.13;;
3171;SDS011;1597;51.572;6.992;2023-07-20T09:38:42;4.83;;;4.33;;
3171;SDS011;1597;51.572;6.992;2023-07-20T09:41:13;2.80;;;2.60;;
3171;SDS011;1597;51.572;6.992;2023-07-20T09:43:43;2.47;;;2.27;;
3171;SDS011;1597;51.572;6.992;2023-07-20T09:46:10;1.80;;;1.70;;
3171;SDS011;1597;51.572;6.992;2023-07-20T09:48:36;4.23;;;2.20;;
3171;SDS011;1597;51.572;6.992;2023-07-20T09:51:03;1.40;;;1.30;;
3171;SDS011;1597;51.572;6.992;2023-07-20T09:53:32;2.40;;;1.70;;
3171;SDS011;1597;51.572;6.992;2023-07-20T09:55:59;2.17;;;2.00;;
3171;SDS011;1597;51.572;6.992;2023-07-20T09:58:26;5.00;;;3.40;;
3171;SDS011;1597;51.572;6.992;2023-07-20T10:00:52;1.43;;;1.33;;
3171;SDS011;1597;51.572;6.992;2023-07-20T10:03:22;1.20;;;1.10;;
3171;SDS011;1597;51.572;6.992;2023-07-20T10:06:02;1.23;;;1.13;;
3171;SDS011;1597;51.572;6.992;2023-07-20T10:08:32;3.93;;;1.50;;
3171;SDS011;1597;51.572;6.992;2023-07-20T10:11:07;2.63;;;1.73;;
3171;SDS011;1597;51.572;6.992;2023-07-20T10:13:37;2.33;;;1.97;;
3171;SDS011;1597;51.572;6.992;2023-07-20T10:16:09;1.60;;;1.50;;
3171;SDS011;1597;51.572;6.992;2023-07-20T10:18:48;1.70;;;1.60;;
3171;SDS011;1597;51.572;6.992;2023-07-20T10:21:26;1.50;;;1.40;;
3171;SDS011;1597;51.572;6.992;2023-07-20T10:23:55;1.80;;;1.70;;
3171;SDS011;1597;51.572;6.992;2023-07-20T10:26:22;1.30;;;1.20;;
3171;SDS011;1597;51.572;6.992;2023-07-20T10:28:48;2.80;;;1.00;;
3171;SDS011;1597;51.572;6.992;2023-07-20T10:31:17;1.40;;;1.30;;
3171;SDS011;1597;51.572;6.992;2023-07-20T10:33:43;1.30;;;1.20;;
3171;SDS011;1597;51.572;6.992;2023-07-20T10:36:09;2.10;;;1.77;;
3171;SDS011;1597;51.572;6.992;2023-07-20T10:38:55;1.60;;;1.50;;
3171;SDS011;1597;51.572;6.992;2023-07-20T10:44:08;1.50;;;1.40;;
3171;SDS011;1597;51.572;6.992;2023-07-20T10:49:05;1.53;;;1.10;;
3171;SDS011;1597;51.572;6.992;2023-07-20T10:51:42;2.00;;;1.60;;
3171;SDS011;1597;51.572;6.992;2023-07-20T10:56:44;0.83;;;0.83;;
3171;SDS011;1597;51.572;6.992;2023-07-20T10:59:19;1.03;;;0.83;;
3171;SDS011;1597;51.572;6.992;2023-07-20T11:02:08;1.60;;;1.10;;
3171;SDS011;1597;51.572;6.992;2023-07-20T11:07:08;2.07;;;1.80;;
3171;SDS011;1597;51.572;6.992;2023-07-20T11:09:34;3.20;;;1.00;;
3171;SDS011;1597;51.572;6.992;2023-07-20T11:12:09;1.10;;;1.00;;
3171;SDS011;1597;51.572;6.992;2023-07-20T11:14:40;1.30;;;1.20;;
3171;SDS011;1597;51.572;6.992;2023-07-20T11:17:15;1.90;;;1.50;;
3171;SDS011;1597;51.572;6.992;2023-07-20T11:19:47;2.57;;;2.37;;
3171;SDS011;1597;51.572;6.992;2023-07-20T11:22:16;2.97;;;2.00;;
3171;SDS011;1597;51.572;6.992;2023-07-20T11:24:43;5.33;;;2.20;;
3171;SDS011;1597;51.572;6.992;2023-07-20T11:27:10;1.23;;;1.13;;
3171;SDS011;1597;51.572;6.992;2023-07-20T11:29:37;1.57;;;1.30;;
3171;SDS011;1597;51.572;6.992;2023-07-20T11:32:03;1.40;;;1.30;;
3171;SDS011;1597;51.572;6.992;2023-07-20T11:34:30;1.50;;;1.40;;
3171;SDS011;1597;51.572;6.992;2023-07-20T11:36:58;1.50;;;1.40;;
3171;SDS011;1597;51.572;6.992;2023-07-20T11:39:24;1.50;;;1.40;;
3171;SDS011;1597;51.572;6.992;2023-07-20T11:41:59;2.90;;;2.70;;
3171;SDS011;1597;51.572;6.992;2023-07-20T11:44:28;3.30;;;3.00;;
3171;SDS011;1597;51.572;6.992;2023-07-20T11:47:04;1.07;;;0.97;;
3171;SDS011;1597;51.572;6.992;2023-07-20T11:49:37;1.37;;;1.17;;
3171;SDS011;1597;51.572;6.992;2023-07-20T11:52:11;0.90;;;0.90;;
3171;SDS011;1597;51.572;6.992;2023-07-20T11:54:40;4.17;;;1.40;;
3171;SDS011;1597;51.572;6.992;2023-07-20T11:57:07;1.60;;;1.50;;
3171;SDS011;1597;51.572;6.992;2023-07-20T12:02:22;1.90;;;1.30;;
3171;SDS011;1597;51.572;6.992;2023-07-20T12:04:50;4.87;;;3.00;;
3171;SDS011;1597;51.572;6.992;2023-07-20T12:07:18;1.33;;;1.17;;
3171;SDS011;1597;51.572;6.992;2023-07-20T12:09:45;1.53;;;1.40;;
3171;SDS011;1597;51.572;6.992;2023-07-20T12:12:32;1.60;;;1.23;;
3171;SDS011;1597;51.572;6.992;2023-07-20T12:17:55;1.97;;;1.87;;
3171;SDS011;1597;51.572;6.992;2023-07-20T12:20:29;3.90;;;3.30;;
3171;SDS011;1597;51.572;6.992;2023-07-20T12:23:00;4.70;;;2.40;;
3171;SDS011;1597;51.572;6.992;2023-07-20T12:25:48;3.57;;;1.50;;
3171;SDS011;1597;51.572;6.992;2023-07-20T12:28:15;3.80;;;1.23;;
3171;SDS011;1597;51.572;6.992;2023-07-20T12:30:43;3.03;;;1.40;;
3171;SDS011;1597;51.572;6.992;2023-07-20T12:33:11;3.70;;;3.40;;
3171;SDS011;1597;51.572;6.992;2023-07-20T12:35:42;1.50;;;1.40;;
3171;SDS011;1597;51.572;6.992;2023-07-20T12:38:11;1.70;;;1.20;;
3171;SDS011;1597;51.572;6.992;2023-07-20T12:40:37;1.93;;;1.70;;
3171;SDS011;1597;51.572;6.992;2023-07-20T12:43:03;1.43;;;1.30;;
3171;SDS011;1597;51.572;6.992;2023-07-20T12:45:32;2.20;;;1.27;;
3171;SDS011;1597;51.572;6.992;2023-07-20T12:47:59;1.27;;;1.17;;
3171;SDS011;1597;51.572;6.992;2023-07-20T12:50:26;2.70;;;1.00;;
3171;SDS011;1597;51.572;6.992;2023-07-20T12:52:52;3.80;;;1.50;;
3171;SDS011;1597;51.572;6.992;2023-07-20T12:55:18;1.27;;;1.03;;
3171;SDS011;1597;51.572;6.992;2023-07-20T12:57:45;2.40;;;1.97;;
3171;SDS011;1597;51.572;6.992;2023-07-20T13:00:14;1.40;;;1.30;;
3171;SDS011;1597;51.572;6.992;2023-07-20T13:02:41;1.37;;;1.27;;
3171;SDS011;1597;51.572;6.992;2023-07-20T13:05:08;1.63;;;1.27;;
3171;SDS011;1597;51.572;6.992;2023-07-20T13:07:35;2.37;;;1.47;;
3171;SDS011;1597;51.572;6.992;2023-07-20T13:10:04;4.07;;;1.90;;
3171;SDS011;1597;51.572;6.992;2023-07-20T13:12:31;1.37;;;1.27;;
3171;SDS011;1597;51.572;6.992;2023-07-20T13:14:58;1.80;;;1.43;;
3171;SDS011;1597;51.572;6.992;2023-07-20T13:17:26;1.70;;;1.60;;
3171;SDS011;1597;51.572;6.992;2023-07-20T13:19:52;1.17;;;1.13;;
3171;SDS011;1597;51.572;6.992;2023-07-20T13:22:19;1.07;;;0.90;;
3171;SDS011;1597;51.572;6.992;2023-07-20T13:24:46;1.03;;;1.00;;
3171;SDS011;1597;51.572;6.992;2023-07-20T13:27:15;3.53;;;2.47;;
3171;SDS011;1597;51.572;6.992;2023-07-20T13:29:43;1.20;;;0.97;;
3171;SDS011;1597;51.572;6.992;2023-07-20T13:32:09;1.30;;;1.20;;
3171;SDS011;1597;51.572;6.992;2023-07-20T13:34:36;2.47;;;1.50;;
3171;SDS011;1597;51.572;6.992;2023-07-20T13:37:02;1.50;;;0.90;;
3171;SDS011;1597;51.572;6.992;2023-07-20T13:39:28;1.60;;;1.50;;
3171;SDS011;1597;51.572;6.992;2023-07-20T13:41:56;2.57;;;1.83;;
3171;SDS011;1597;51.572;6.992;2023-07-20T13:44:23;2.33;;;1.50;;
3171;SDS011;1597;51.572;6.992;2023-07-20T13:46:49;1.63;;;1.53;;
3171;SDS011;1597;51.572;6.992;2023-07-20T13:49:15;1.20;;;1.00;;
3171;SDS011;1597;51.572;6.992;2023-07-20T13:51:41;2.67;;;1.30;;
3171;SDS011;1597;51.572;6.992;2023-07-20T13:54:07;1.60;;;1.43;;
3171;SDS011;1597;51.572;6.992;2023-07-20T13:56:34;2.00;;;1.63;;
3171;SDS011;1597;51.572;6.992;2023-07-20T13:59:00;2.43;;;1.30;;
3171;SDS011;1597;51.572;6.992;2023-07-20T14:01:26;2.70;;;1.40;;
3171;SDS011;1597;51.572;6.992;2023-07-20T14:03:53;1.93;;;1.50;;
3171;SDS011;1597;51.572;6.992;2023-07-20T14:06:20;3.23;;;1.57;;
3171;SDS011;1597;51.572;6.992;2023-07-20T14:08:46;1.50;;;1.20;;
3171;SDS011;1597;51.572;6.992;2023-07-20T14:11:12;1.23;;;1.10;;
3171;SDS011;1597;51.572;6.992;2023-07-20T14:13:38;1.43;;;1.07;;
3171;SDS011;1597;51.572;6.992;2023-07-20T14:16:04;2.93;;;1.73;;
3171;SDS011;1597;51.572;6.992;2023-07-20T14:18:30;1.63;;;1.30;;
3171;SDS011;1597;51.572;6.992;2023-07-20T14:20:56;1.07;;;0.90;;
3171;SDS011;1597;51.572;6.992;2023-07-20T14:23:22;2.40;;;2.20;;
3171;SDS011;1597;51.572;6.992;2023-07-20T14:25:49;5.33;;;2.80;;
3171;SDS011;1597;51.572;6.992;2023-07-20T14:28:15;2.23;;;1.53;;
3171;SDS011;1597;51.572;6.992;2023-07-20T14:30:41;1.83;;;1.60;;
3171;SDS011;1597;51.572;6.992;2023-07-20T14:33:07;1.47;;;1.20;;
3171;SDS011;1597;51.572;6.992;2023-07-20T14:35:33;2.60;;;2.40;;
3171;SDS011;1597;51.572;6.992;2023-07-20T14:38:00;2.90;;;2.13;;
3171;SDS011;1597;51.572;6.992;2023-07-20T14:40:26;2.33;;;1.57;;
3171;SDS011;1597;51.572;6.992;2023-07-20T14:42:52;1.93;;;1.73;;
3171;SDS011;1597;51.572;6.992;2023-07-20T14:45:18;2.67;;;1.50;;
3171;SDS011;1597;51.572;6.992;2023-07-20T14:47:44;1.53;;;1.30;;
3171;SDS011;1597;51.572;6.992;2023-07-20T14:50:10;2.20;;;1.53;;
3171;SDS011;1597;51.572;6.992;2023-07-20T14:52:36;1.50;;;1.40;;
3171;SDS011;1597;51.572;6.992;2023-07-20T14:55:02;2.47;;;2.37;;
3171;SDS011;1597;51.572;6.992;2023-07-20T14:57:29;1.23;;;1.13;;
3171;SDS011;1597;51.572;6.992;2023-07-20T14:59:55;1.97;;;1.87;;
3171;SDS011;1597;51.572;6.992;2023-07-20T15:02:21;1.50;;;1.30;;
3171;SDS011;1597;51.572;6.992;2023-07-20T15:04:51;1.40;;;1.30;;
3171;SDS011;1597;51.572;6.992;2023-07-20T15:07:18;2.37;;;1.57;;
3171;SDS011;1597;51.572;6.992;2023-07-20T15:09:47;1.50;;;1.40;;
3171;SDS011;1597;51.572;6.992;2023-07-20T15:12:13;1.60;;;1.50;;
3171;SDS011;1597;51.572;6.992;2023-07-20T15:14:39;3.23;;;1.40;;
3171;SDS011;1597;51.572;6.992;2023-07-20T15:17:08;5.23;;;1.93;;
3171;SDS011;1597;51.572;6.992;2023-07-20T15:19:35;1.60;;;1.10;;
3171;SDS011;1597;51.572;6.992;2023-07-20T15:22:01;1.20;;;1.10;;
3171;SDS011;1597;51.572;6.992;2023-07-20T15:24:29;1.27;;;1.07;;
3171;SDS011;1597;51.572;6.992;2023-07-20T15:26:55;2.20;;;1.67;;
3171;SDS011;1597;51.572;6.992;2023-07-20T15:29:22;1.80;;;1.70;;
3171;SDS011;1597;51.572;6.992;2023-07-20T15:31:49;2.10;;;1.40;;
3171;SDS011;1597;51.572;6.992;2023-07-20T15:34:14;4.90;;;3.00;;
3171;SDS011;1597;51.572;6.992;2023-07-20T15:36:40;2.33;;;1.90;;